Terminal Aerodrome Forecast
Issued by NWS Melbourne, FL

Home | Current Version | Previous Version | Text Only | Print | Product List | Glossary On
Versions: 1 2 3 4 5 6 7 8 9 10 11 12 13 14 15 16 17 18 19 20 21 22 23 24 25 26
000
FTUS42 KMLB 221135
TAFMCO
TAF
KMCO 221135Z 2212/2312 11007KT P6SM VCSH SCT040 BKN060 OVC200
     FM221400 15011KT P6SM VCSH SCT025 BKN040 OVC060
      TEMPO 2214/2218 5SM SHRA OVC010
     FM221800 13008KT 5SM -RA BR OVC015
      TEMPO 2218/2222 2SM SHRA OVC008
     FM222200 10006KT P6SM VCSH SCT020 OVC050
      TEMPO 2222/2302 5SM SHRA BKN020 OVC040
     FM230200 09005KT P6SM VCSH BKN015 OVC030
     FM230600 03006KT P6SM BKN010 OVC020=

USA.gov is the U.S. government's official web portal to all federal, state and local government web resources and services.